sensor_id;sensor_type;location;lat;lon;timestamp;P1;durP1;ratioP1;P2;durP2;ratioP2
7359;SDS011;3720;48.274;7.796;2022-11-20T00:02:05;14.60;;;8.07;;
7359;SDS011;3720;48.274;7.796;2022-11-20T00:04:36;13.32;;;7.82;;
7359;SDS011;3720;48.274;7.796;2022-11-20T00:07:09;12.77;;;8.00;;
7359;SDS011;3720;48.274;7.796;2022-11-20T00:09:41;15.43;;;7.78;;
7359;SDS011;3720;48.274;7.796;2022-11-20T00:12:14;11.60;;;7.80;;
7359;SDS011;3720;48.274;7.796;2022-11-20T00:14:46;12.10;;;7.68;;
7359;SDS011;3720;48.274;7.796;2022-11-20T00:17:18;12.80;;;7.75;;
7359;SDS011;3720;48.274;7.796;2022-11-20T00:19:50;12.07;;;8.02;;
7359;SDS011;3720;48.274;7.796;2022-11-20T00:22:21;12.32;;;7.35;;
7359;SDS011;3720;48.274;7.796;2022-11-20T00:24:53;11.15;;;7.63;;
7359;SDS011;3720;48.274;7.796;2022-11-20T00:27:28;12.48;;;7.50;;
7359;SDS011;3720;48.274;7.796;2022-11-20T00:30:00;12.90;;;7.07;;
7359;SDS011;3720;48.274;7.796;2022-11-20T00:32:32;12.25;;;7.28;;
7359;SDS011;3720;48.274;7.796;2022-11-20T00:35:04;10.77;;;6.85;;
7359;SDS011;3720;48.274;7.796;2022-11-20T00:37:36;11.60;;;7.28;;
7359;SDS011;3720;48.274;7.796;2022-11-20T00:40:08;11.65;;;7.50;;
7359;SDS011;3720;48.274;7.796;2022-11-20T00:42:42;11.13;;;7.05;;
7359;SDS011;3720;48.274;7.796;2022-11-20T00:45:14;11.10;;;7.43;;
7359;SDS011;3720;48.274;7.796;2022-11-20T00:47:46;13.57;;;7.00;;
7359;SDS011;3720;48.274;7.796;2022-11-20T00:50:18;11.13;;;7.50;;
7359;SDS011;3720;48.274;7.796;2022-11-20T00:52:50;12.02;;;7.50;;
7359;SDS011;3720;48.274;7.796;2022-11-20T00:55:21;11.88;;;7.20;;
7359;SDS011;3720;48.274;7.796;2022-11-20T00:57:55;13.60;;;7.78;;
7359;SDS011;3720;48.274;7.796;2022-11-20T01:00:27;11.63;;;7.38;;
7359;SDS011;3720;48.274;7.796;2022-11-20T01:02:58;12.48;;;7.82;;
7359;SDS011;3720;48.274;7.796;2022-11-20T01:05:33;13.95;;;7.88;;
7359;SDS011;3720;48.274;7.796;2022-11-20T01:08:05;12.15;;;7.65;;
7359;SDS011;3720;48.274;7.796;2022-11-20T01:10:37;12.68;;;7.82;;
7359;SDS011;3720;48.274;7.796;2022-11-20T01:13:10;12.60;;;8.15;;
7359;SDS011;3720;48.274;7.796;2022-11-20T01:16:01;12.13;;;8.02;;
7359;SDS011;3720;48.274;7.796;2022-11-20T01:18:34;11.02;;;7.40;;
7359;SDS011;3720;48.274;7.796;2022-11-20T01:21:07;13.57;;;8.05;;
7359;SDS011;3720;48.274;7.796;2022-11-20T01:23:40;15.30;;;8.23;;
7359;SDS011;3720;48.274;7.796;2022-11-20T01:26:13;14.50;;;8.00;;
7359;SDS011;3720;48.274;7.796;2022-11-20T01:28:48;13.38;;;8.38;;
7359;SDS011;3720;48.274;7.796;2022-11-20T01:31:22;12.90;;;7.80;;
7359;SDS011;3720;48.274;7.796;2022-11-20T01:33:55;13.55;;;8.30;;
7359;SDS011;3720;48.274;7.796;2022-11-20T01:36:29;12.85;;;7.80;;
7359;SDS011;3720;48.274;7.796;2022-11-20T01:39:02;12.48;;;8.82;;
7359;SDS011;3720;48.274;7.796;2022-11-20T01:41:35;12.50;;;8.43;;
7359;SDS011;3720;48.274;7.796;2022-11-20T01:47:21;10.38;;;7.30;;
7359;SDS011;3720;48.274;7.796;2022-11-20T01:50:02;10.05;;;6.68;;
7359;SDS011;3720;48.274;7.796;2022-11-20T01:52:37;8.68;;;6.35;;
7359;SDS011;3720;48.274;7.796;2022-11-20T01:55:15;12.30;;;6.07;;
7359;SDS011;3720;48.274;7.796;2022-11-20T02:00:24;8.18;;;5.97;;
7359;SDS011;3720;48.274;7.796;2022-11-20T02:02:57;7.30;;;5.55;;
7359;SDS011;3720;48.274;7.796;2022-11-20T02:05:31;7.65;;;5.70;;
7359;SDS011;3720;48.274;7.796;2022-11-20T02:08:06;10.48;;;6.15;;
7359;SDS011;3720;48.274;7.796;2022-11-20T02:10:38;10.30;;;6.22;;
7359;SDS011;3720;48.274;7.796;2022-11-20T02:13:10;12.02;;;6.50;;
7359;SDS011;3720;48.274;7.796;2022-11-20T02:16:01;9.05;;;6.28;;
7359;SDS011;3720;48.274;7.796;2022-11-20T02:18:34;10.45;;;6.53;;
7359;SDS011;3720;48.274;7.796;2022-11-20T02:21:06;9.80;;;6.13;;
7359;SDS011;3720;48.274;7.796;2022-11-20T02:23:53;11.13;;;6.85;;
7359;SDS011;3720;48.274;7.796;2022-11-20T02:26:33;11.93;;;7.13;;
7359;SDS011;3720;48.274;7.796;2022-11-20T02:29:07;8.95;;;6.35;;
7359;SDS011;3720;48.274;7.796;2022-11-20T02:31:40;11.70;;;6.63;;
7359;SDS011;3720;48.274;7.796;2022-11-20T02:34:14;12.93;;;6.63;;
7359;SDS011;3720;48.274;7.796;2022-11-20T02:36:46;9.73;;;6.88;;
7359;SDS011;3720;48.274;7.796;2022-11-20T02:39:21;10.88;;;6.63;;
7359;SDS011;3720;48.274;7.796;2022-11-20T02:41:56;10.93;;;6.05;;
7359;SDS011;3720;48.274;7.796;2022-11-20T02:44:28;9.52;;;6.57;;
7359;SDS011;3720;48.274;7.796;2022-11-20T02:47:00;10.57;;;6.45;;
7359;SDS011;3720;48.274;7.796;2022-11-20T02:49:32;12.32;;;6.43;;
7359;SDS011;3720;48.274;7.796;2022-11-20T02:52:04;10.98;;;6.43;;
7359;SDS011;3720;48.274;7.796;2022-11-20T02:54:37;10.27;;;6.45;;
7359;SDS011;3720;48.274;7.796;2022-11-20T02:57:09;8.35;;;5.88;;
7359;SDS011;3720;48.274;7.796;2022-11-20T02:59:41;8.75;;;6.15;;
7359;SDS011;3720;48.274;7.796;2022-11-20T03:02:13;9.90;;;6.15;;
7359;SDS011;3720;48.274;7.796;2022-11-20T03:04:44;9.98;;;6.75;;
7359;SDS011;3720;48.274;7.796;2022-11-20T03:07:16;9.50;;;6.35;;
7359;SDS011;3720;48.274;7.796;2022-11-20T03:09:49;12.85;;;6.95;;
7359;SDS011;3720;48.274;7.796;2022-11-20T03:12:21;9.00;;;6.13;;
7359;SDS011;3720;48.274;7.796;2022-11-20T03:14:53;10.10;;;6.75;;
7359;SDS011;3720;48.274;7.796;2022-11-20T03:17:25;9.60;;;5.90;;
7359;SDS011;3720;48.274;7.796;2022-11-20T03:19:57;9.40;;;6.60;;
7359;SDS011;3720;48.274;7.796;2022-11-20T03:22:28;9.65;;;6.35;;
7359;SDS011;3720;48.274;7.796;2022-11-20T03:25:02;10.05;;;6.55;;
7359;SDS011;3720;48.274;7.796;2022-11-20T03:27:34;12.15;;;7.13;;
7359;SDS011;3720;48.274;7.796;2022-11-20T03:30:07;12.45;;;6.78;;
7359;SDS011;3720;48.274;7.796;2022-11-20T03:32:39;9.65;;;6.80;;
7359;SDS011;3720;48.274;7.796;2022-11-20T03:35:11;9.48;;;6.50;;
7359;SDS011;3720;48.274;7.796;2022-11-20T03:37:43;11.40;;;6.88;;
7359;SDS011;3720;48.274;7.796;2022-11-20T03:40:17;11.18;;;7.32;;
7359;SDS011;3720;48.274;7.796;2022-11-20T03:42:49;11.52;;;6.65;;
7359;SDS011;3720;48.274;7.796;2022-11-20T03:45:20;11.07;;;7.03;;
7359;SDS011;3720;48.274;7.796;2022-11-20T03:47:52;9.68;;;6.30;;
7359;SDS011;3720;48.274;7.796;2022-11-20T03:50:24;9.38;;;5.93;;
7359;SDS011;3720;48.274;7.796;2022-11-20T03:52:56;11.15;;;6.53;;
7359;SDS011;3720;48.274;7.796;2022-11-20T03:55:29;10.93;;;6.60;;
7359;SDS011;3720;48.274;7.796;2022-11-20T03:58:01;10.88;;;6.45;;
7359;SDS011;3720;48.274;7.796;2022-11-20T04:00:33;12.52;;;6.28;;
7359;SDS011;3720;48.274;7.796;2022-11-20T04:03:05;9.68;;;6.25;;
7359;SDS011;3720;48.274;7.796;2022-11-20T04:05:37;9.10;;;6.30;;
7359;SDS011;3720;48.274;7.796;2022-11-20T04:08:09;9.27;;;6.45;;
7359;SDS011;3720;48.274;7.796;2022-11-20T04:10:42;11.15;;;6.40;;
7359;SDS011;3720;48.274;7.796;2022-11-20T04:13:14;9.75;;;6.05;;
7359;SDS011;3720;48.274;7.796;2022-11-20T04:15:46;9.88;;;6.22;;
7359;SDS011;3720;48.274;7.796;2022-11-20T04:18:17;10.75;;;6.22;;
7359;SDS011;3720;48.274;7.796;2022-11-20T04:20:49;11.07;;;6.40;;
7359;SDS011;3720;48.274;7.796;2022-11-20T04:23:21;9.27;;;6.15;;
7359;SDS011;3720;48.274;7.796;2022-11-20T04:25:54;10.52;;;6.70;;
7359;SDS011;3720;48.274;7.796;2022-11-20T04:28:31;9.15;;;6.30;;
7359;SDS011;3720;48.274;7.796;2022-11-20T04:31:03;10.68;;;6.95;;
7359;SDS011;3720;48.274;7.796;2022-11-20T04:33:37;11.93;;;6.95;;
7359;SDS011;3720;48.274;7.796;2022-11-20T04:36:10;10.77;;;7.03;;
7359;SDS011;3720;48.274;7.796;2022-11-20T04:38:43;9.60;;;6.65;;
7359;SDS011;3720;48.274;7.796;2022-11-20T04:41:16;11.85;;;7.10;;
7359;SDS011;3720;48.274;7.796;2022-11-20T04:43:50;11.48;;;6.80;;
7359;SDS011;3720;48.274;7.796;2022-11-20T04:46:23;8.32;;;6.13;;
7359;SDS011;3720;48.274;7.796;2022-11-20T04:48:54;10.55;;;5.85;;
7359;SDS011;3720;48.274;7.796;2022-11-20T04:51:27;8.52;;;6.03;;
7359;SDS011;3720;48.274;7.796;2022-11-20T04:53:59;10.32;;;6.25;;
7359;SDS011;3720;48.274;7.796;2022-11-20T04:56:33;10.13;;;6.75;;
7359;SDS011;3720;48.274;7.796;2022-11-20T04:59:04;10.18;;;6.57;;
7359;SDS011;3720;48.274;7.796;2022-11-20T05:01:36;10.93;;;6.22;;
7359;SDS011;3720;48.274;7.796;2022-11-20T05:04:08;9.30;;;6.22;;
7359;SDS011;3720;48.274;7.796;2022-11-20T05:06:40;11.27;;;6.13;;
7359;SDS011;3720;48.274;7.796;2022-11-20T05:09:12;8.38;;;6.10;;
7359;SDS011;3720;48.274;7.796;2022-11-20T05:11:45;9.13;;;5.88;;
7359;SDS011;3720;48.274;7.796;2022-11-20T05:14:17;10.88;;;6.57;;
7359;SDS011;3720;48.274;7.796;2022-11-20T05:16:49;10.07;;;6.28;;
7359;SDS011;3720;48.274;7.796;2022-11-20T05:19:21;12.10;;;6.00;;
7359;SDS011;3720;48.274;7.796;2022-11-20T05:21:52;8.93;;;6.03;;
7359;SDS011;3720;48.274;7.796;2022-11-20T05:24:24;12.13;;;6.45;;
7359;SDS011;3720;48.274;7.796;2022-11-20T05:26:57;11.65;;;5.95;;
7359;SDS011;3720;48.274;7.796;2022-11-20T05:29:29;9.07;;;6.13;;
7359;SDS011;3720;48.274;7.796;2022-11-20T05:32:01;9.27;;;5.30;;
7359;SDS011;3720;48.274;7.796;2022-11-20T05:34:33;8.48;;;5.32;;
7359;SDS011;3720;48.274;7.796;2022-11-20T05:37:05;8.77;;;5.10;;
7359;SDS011;3720;48.274;7.796;2022-11-20T05:39:36;7.97;;;5.05;;
7359;SDS011;3720;48.274;7.796;2022-11-20T05:42:10;6.97;;;5.15;;
7359;SDS011;3720;48.274;7.796;2022-11-20T05:45:00;8.60;;;5.07;;
7359;SDS011;3720;48.274;7.796;2022-11-20T05:47:33;7.88;;;4.47;;
7359;SDS011;3720;48.274;7.796;2022-11-20T05:50:05;6.55;;;4.60;;
7359;SDS011;3720;48.274;7.796;2022-11-20T05:52:37;7.85;;;4.40;;
7359;SDS011;3720;48.274;7.796;2022-11-20T05:55:09;5.63;;;3.97;;
7359;SDS011;3720;48.274;7.796;2022-11-20T05:57:43;6.40;;;4.18;;
7359;SDS011;3720;48.274;7.796;2022-11-20T06:00:15;7.95;;;4.30;;
7359;SDS011;3720;48.274;7.796;2022-11-20T06:02:47;6.88;;;3.80;;
7359;SDS011;3720;48.274;7.796;2022-11-20T06:05:19;5.68;;;3.70;;
7359;SDS011;3720;48.274;7.796;2022-11-20T06:07:51;6.47;;;3.80;;
7359;SDS011;3720;48.274;7.796;2022-11-20T06:10:22;5.70;;;3.38;;
7359;SDS011;3720;48.274;7.796;2022-11-20T06:12:58;6.45;;;3.92;;
7359;SDS011;3720;48.274;7.796;2022-11-20T06:15:29;5.00;;;3.40;;
7359;SDS011;3720;48.274;7.796;2022-11-20T06:18:01;5.20;;;3.33;;
7359;SDS011;3720;48.274;7.796;2022-11-20T06:20:33;5.70;;;3.38;;
7359;SDS011;3720;48.274;7.796;2022-11-20T06:23:05;5.43;;;3.33;;
7359;SDS011;3720;48.274;7.796;2022-11-20T06:25:37;4.00;;;3.20;;
7359;SDS011;3720;48.274;7.796;2022-11-20T06:28:11;5.30;;;3.42;;
7359;SDS011;3720;48.274;7.796;2022-11-20T06:30:44;3.92;;;2.90;;
7359;SDS011;3720;48.274;7.796;2022-11-20T06:33:16;5.20;;;2.85;;
7359;SDS011;3720;48.274;7.796;2022-11-20T06:35:48;4.15;;;2.90;;
7359;SDS011;3720;48.274;7.796;2022-11-20T06:38:20;4.95;;;3.15;;
7359;SDS011;3720;48.274;7.796;2022-11-20T06:40:52;5.45;;;3.10;;
7359;SDS011;3720;48.274;7.796;2022-11-20T06:43:25;4.45;;;3.20;;
7359;SDS011;3720;48.274;7.796;2022-11-20T06:45:59;5.28;;;3.40;;
7359;SDS011;3720;48.274;7.796;2022-11-20T06:48:31;5.72;;;3.40;;
7359;SDS011;3720;48.274;7.796;2022-11-20T06:51:04;4.65;;;3.08;;
7359;SDS011;3720;48.274;7.796;2022-11-20T06:53:36;4.75;;;3.38;;
7359;SDS011;3720;48.274;7.796;2022-11-20T06:56:08;11.80;;;3.60;;
7359;SDS011;3720;48.274;7.796;2022-11-20T06:58:42;5.18;;;3.60;;
7359;SDS011;3720;48.274;7.796;2022-11-20T07:01:14;5.47;;;3.50;;
7359;SDS011;3720;48.274;7.796;2022-11-20T07:03:48;7.68;;;3.72;;
7359;SDS011;3720;48.274;7.796;2022-11-20T07:06:20;6.93;;;3.25;;
7359;SDS011;3720;48.274;7.796;2022-11-20T07:08:52;6.68;;;3.80;;
7359;SDS011;3720;48.274;7.796;2022-11-20T07:11:24;6.10;;;3.10;;
7359;SDS011;3720;48.274;7.796;2022-11-20T07:13:57;4.78;;;3.50;;
7359;SDS011;3720;48.274;7.796;2022-11-20T07:16:29;5.68;;;3.78;;
7359;SDS011;3720;48.274;7.796;2022-11-20T07:19:01;6.57;;;4.15;;
7359;SDS011;3720;48.274;7.796;2022-11-20T07:21:33;6.75;;;4.85;;
7359;SDS011;3720;48.274;7.796;2022-11-20T07:24:05;6.75;;;4.28;;
7359;SDS011;3720;48.274;7.796;2022-11-20T07:26:37;5.40;;;4.15;;
7359;SDS011;3720;48.274;7.796;2022-11-20T07:29:10;6.55;;;4.25;;
7359;SDS011;3720;48.274;7.796;2022-11-20T07:31:42;5.90;;;4.30;;
7359;SDS011;3720;48.274;7.796;2022-11-20T07:34:14;7.57;;;4.78;;
7359;SDS011;3720;48.274;7.796;2022-11-20T07:36:45;6.43;;;4.40;;
7359;SDS011;3720;48.274;7.796;2022-11-20T07:39:17;6.63;;;4.10;;
7359;SDS011;3720;48.274;7.796;2022-11-20T07:41:49;6.07;;;4.50;;
7359;SDS011;3720;48.274;7.796;2022-11-20T07:44:22;7.18;;;4.60;;
7359;SDS011;3720;48.274;7.796;2022-11-20T07:46:54;6.97;;;4.82;;
7359;SDS011;3720;48.274;7.796;2022-11-20T07:49:26;6.18;;;4.28;;
7359;SDS011;3720;48.274;7.796;2022-11-20T07:51:58;5.45;;;3.60;;
7359;SDS011;3720;48.274;7.796;2022-11-20T07:54:29;6.05;;;3.53;;
7359;SDS011;3720;48.274;7.796;2022-11-20T07:57:01;5.85;;;3.70;;
7359;SDS011;3720;48.274;7.796;2022-11-20T07:59:35;5.88;;;4.07;;
7359;SDS011;3720;48.274;7.796;2022-11-20T08:02:09;5.32;;;4.00;;
7359;SDS011;3720;48.274;7.796;2022-11-20T08:04:41;5.68;;;3.53;;
7359;SDS011;3720;48.274;7.796;2022-11-20T08:07:13;4.70;;;3.80;;
7359;SDS011;3720;48.274;7.796;2022-11-20T08:09:45;5.70;;;3.88;;
7359;SDS011;3720;48.274;7.796;2022-11-20T08:12:18;6.50;;;3.97;;
7359;SDS011;3720;48.274;7.796;2022-11-20T08:15:10;4.40;;;3.38;;
7359;SDS011;3720;48.274;7.796;2022-11-20T08:17:41;6.80;;;3.78;;
7359;SDS011;3720;48.274;7.796;2022-11-20T08:20:13;5.25;;;3.85;;
7359;SDS011;3720;48.274;7.796;2022-11-20T08:22:45;4.75;;;3.58;;
7359;SDS011;3720;48.274;7.796;2022-11-20T08:25:17;5.82;;;3.97;;
7359;SDS011;3720;48.274;7.796;2022-11-20T08:27:49;5.70;;;4.18;;
7359;SDS011;3720;48.274;7.796;2022-11-20T08:30:22;6.13;;;4.55;;
7359;SDS011;3720;48.274;7.796;2022-11-20T08:32:54;6.25;;;4.35;;
7359;SDS011;3720;48.274;7.796;2022-11-20T08:35:26;7.13;;;4.47;;
7359;SDS011;3720;48.274;7.796;2022-11-20T08:37:58;6.57;;;4.32;;
7359;SDS011;3720;48.274;7.796;2022-11-20T08:40:29;5.47;;;4.15;;
7359;SDS011;3720;48.274;7.796;2022-11-20T08:43:01;5.65;;;4.30;;
7359;SDS011;3720;48.274;7.796;2022-11-20T08:45:35;6.38;;;4.50;;
7359;SDS011;3720;48.274;7.796;2022-11-20T08:48:06;6.45;;;4.38;;
7359;SDS011;3720;48.274;7.796;2022-11-20T08:50:38;8.15;;;4.75;;
7359;SDS011;3720;48.274;7.796;2022-11-20T08:53:10;8.82;;;5.05;;
7359;SDS011;3720;48.274;7.796;2022-11-20T08:55:42;7.95;;;5.53;;
7359;SDS011;3720;48.274;7.796;2022-11-20T08:58:14;10.55;;;4.95;;
7359;SDS011;3720;48.274;7.796;2022-11-20T09:00:47;5.85;;;4.32;;
7359;SDS011;3720;48.274;7.796;2022-11-20T09:03:19;5.93;;;4.13;;
7359;SDS011;3720;48.274;7.796;2022-11-20T09:05:51;6.78;;;4.03;;
7359;SDS011;3720;48.274;7.796;2022-11-20T09:08:27;5.93;;;4.00;;
7359;SDS011;3720;48.274;7.796;2022-11-20T09:10:59;6.70;;;4.30;;
7359;SDS011;3720;48.274;7.796;2022-11-20T09:13:32;7.38;;;4.28;;
7359;SDS011;3720;48.274;7.796;2022-11-20T09:16:07;6.25;;;4.05;;
7359;SDS011;3720;48.274;7.796;2022-11-20T09:18:40;7.55;;;4.43;;
7359;SDS011;3720;48.274;7.796;2022-11-20T09:21:12;5.63;;;4.20;;
7359;SDS011;3720;48.274;7.796;2022-11-20T09:23:44;6.43;;;3.90;;
7359;SDS011;3720;48.274;7.796;2022-11-20T09:26:16;6.03;;;3.95;;
7359;SDS011;3720;48.274;7.796;2022-11-20T09:28:49;4.47;;;3.60;;
7359;SDS011;3720;48.274;7.796;2022-11-20T09:31:23;5.75;;;4.15;;
7359;SDS011;3720;48.274;7.796;2022-11-20T09:33:56;5.80;;;4.35;;
7359;SDS011;3720;48.274;7.796;2022-11-20T09:36:27;5.57;;;3.78;;
7359;SDS011;3720;48.274;7.796;2022-11-20T09:38:59;5.82;;;4.05;;
7359;SDS011;3720;48.274;7.796;2022-11-20T09:41:37;6.70;;;4.20;;
7359;SDS011;3720;48.274;7.796;2022-11-20T09:44:20;6.70;;;4.32;;
7359;SDS011;3720;48.274;7.796;2022-11-20T09:47:06;6.25;;;4.13;;
7359;SDS011;3720;48.274;7.796;2022-11-20T09:49:49;8.18;;;4.68;;
7359;SDS011;3720;48.274;7.796;2022-11-20T09:52:30;6.72;;;3.60;;
7359;SDS011;3720;48.274;7.796;2022-11-20T09:55:12;5.88;;;3.60;;
7359;SDS011;3720;48.274;7.796;2022-11-20T09:57:46;3.83;;;2.80;;
7359;SDS011;3720;48.274;7.796;2022-11-20T10:00:19;3.67;;;2.63;;
7359;SDS011;3720;48.274;7.796;2022-11-20T10:02:55;3.80;;;2.60;;
7359;SDS011;3720;48.274;7.796;2022-11-20T10:05:31;2.63;;;2.10;;
7359;SDS011;3720;48.274;7.796;2022-11-20T10:08:10;3.17;;;2.30;;
7359;SDS011;3720;48.274;7.796;2022-11-20T10:10:49;4.35;;;2.13;;
7359;SDS011;3720;48.274;7.796;2022-11-20T10:13:27;4.97;;;2.17;;
7359;SDS011;3720;48.274;7.796;2022-11-20T10:16:11;3.63;;;2.10;;
7359;SDS011;3720;48.274;7.796;2022-11-20T10:18:53;3.08;;;1.90;;
7359;SDS011;3720;48.274;7.796;2022-11-20T10:21:38;4.45;;;2.00;;
7359;SDS011;3720;48.274;7.796;2022-11-20T10:24:24;5.38;;;2.15;;
7359;SDS011;3720;48.274;7.796;2022-11-20T10:27:11;4.63;;;2.00;;
7359;SDS011;3720;48.274;7.796;2022-11-20T10:29:59;3.78;;;2.10;;
7359;SDS011;3720;48.274;7.796;2022-11-20T10:32:33;4.07;;;2.28;;
7359;SDS011;3720;48.274;7.796;2022-11-20T10:35:14;3.20;;;2.25;;
7359;SDS011;3720;48.274;7.796;2022-11-20T10:37:52;3.08;;;1.90;;
7359;SDS011;3720;48.274;7.796;2022-11-20T10:40:31;3.47;;;2.10;;
7359;SDS011;3720;48.274;7.796;2022-11-20T10:43:08;4.72;;;2.08;;
7359;SDS011;3720;48.274;7.796;2022-11-20T10:45:49;3.72;;;2.10;;
7359;SDS011;3720;48.274;7.796;2022-11-20T10:48:27;6.50;;;2.00;;
7359;SDS011;3720;48.274;7.796;2022-11-20T10:51:03;4.20;;;2.45;;
7359;SDS011;3720;48.274;7.796;2022-11-20T10:53:46;3.53;;;2.40;;
7359;SDS011;3720;48.274;7.796;2022-11-20T10:56:25;4.55;;;2.72;;
7359;SDS011;3720;48.274;7.796;2022-11-20T10:59:15;4.15;;;2.58;;
7359;SDS011;3720;48.274;7.796;2022-11-20T11:02:18;3.40;;;2.35;;
7359;SDS011;3720;48.274;7.796;2022-11-20T11:04:51;5.57;;;2.60;;
7359;SDS011;3720;48.274;7.796;2022-11-20T11:07:27;4.13;;;2.42;;
7359;SDS011;3720;48.274;7.796;2022-11-20T11:10:11;3.38;;;2.35;;
7359;SDS011;3720;48.274;7.796;2022-11-20T11:12:47;3.55;;;2.30;;
7359;SDS011;3720;48.274;7.796;2022-11-20T11:15:26;3.70;;;2.05;;
7359;SDS011;3720;48.274;7.796;2022-11-20T11:17:59;5.70;;;2.45;;
7359;SDS011;3720;48.274;7.796;2022-11-20T11:20:31;2.28;;;1.80;;
7359;SDS011;3720;48.274;7.796;2022-11-20T11:23:05;2.60;;;1.60;;
7359;SDS011;3720;48.274;7.796;2022-11-20T11:25:56;3.33;;;1.58;;
7359;SDS011;3720;48.274;7.796;2022-11-20T11:28:29;4.70;;;1.88;;
7359;SDS011;3720;48.274;7.796;2022-11-20T11:31:02;2.15;;;1.50;;
7359;SDS011;3720;48.274;7.796;2022-11-20T11:33:34;2.90;;;1.40;;
7359;SDS011;3720;48.274;7.796;2022-11-20T11:36:16;3.47;;;1.60;;
7359;SDS011;3720;48.274;7.796;2022-11-20T11:38:52;3.25;;;2.00;;
7359;SDS011;3720;48.274;7.796;2022-11-20T11:41:25;3.20;;;1.48;;
7359;SDS011;3720;48.274;7.796;2022-11-20T11:44:04;3.00;;;1.60;;
7359;SDS011;3720;48.274;7.796;2022-11-20T11:47:05;2.42;;;1.50;;
7359;SDS011;3720;48.274;7.796;2022-11-20T11:49:42;3.38;;;1.80;;
7359;SDS011;3720;48.274;7.796;2022-11-20T11:52:14;3.28;;;2.05;;
7359;SDS011;3720;48.274;7.796;2022-11-20T11:54:50;3.15;;;1.30;;
7359;SDS011;3720;48.274;7.796;2022-11-20T11:57:26;1.55;;;1.13;;
7359;SDS011;3720;48.274;7.796;2022-11-20T12:00:05;3.20;;;1.20;;
7359;SDS011;3720;48.274;7.796;2022-11-20T12:05:20;4.32;;;1.40;;
7359;SDS011;3720;48.274;7.796;2022-11-20T12:07:55;2.80;;;1.63;;
7359;SDS011;3720;48.274;7.796;2022-11-20T12:10:36;3.50;;;1.85;;
7359;SDS011;3720;48.274;7.796;2022-11-20T12:13:18;3.60;;;2.00;;
7359;SDS011;3720;48.274;7.796;2022-11-20T12:16:09;4.60;;;1.90;;
7359;SDS011;3720;48.274;7.796;2022-11-20T12:18:44;2.42;;;1.50;;
7359;SDS011;3720;48.274;7.796;2022-11-20T12:21:20;3.30;;;1.40;;
7359;SDS011;3720;48.274;7.796;2022-11-20T12:24:05;2.92;;;1.35;;
7359;SDS011;3720;48.274;7.796;2022-11-20T12:26:51;1.75;;;1.05;;
7359;SDS011;3720;48.274;7.796;2022-11-20T12:29:34;2.25;;;1.20;;
7359;SDS011;3720;48.274;7.796;2022-11-20T12:32:27;2.58;;;1.30;;
7359;SDS011;3720;48.274;7.796;2022-11-20T12:35:17;2.30;;;1.40;;
7359;SDS011;3720;48.274;7.796;2022-11-20T12:38:07;2.03;;;1.10;;
7359;SDS011;3720;48.274;7.796;2022-11-20T12:40:59;2.95;;;1.80;;
7359;SDS011;3720;48.274;7.796;2022-11-20T12:43:39;2.92;;;1.52;;
7359;SDS011;3720;48.274;7.796;2022-11-20T12:46:34;2.63;;;1.70;;
7359;SDS011;3720;48.274;7.796;2022-11-20T12:49:18;2.17;;;1.60;;
7359;SDS011;3720;48.274;7.796;2022-11-20T12:52:06;1.95;;;1.40;;
7359;SDS011;3720;48.274;7.796;2022-11-20T12:54:56;4.88;;;1.50;;
7359;SDS011;3720;48.274;7.796;2022-11-20T12:57:55;2.08;;;1.60;;
7359;SDS011;3720;48.274;7.796;2022-11-20T13:00:32;3.13;;;1.60;;
7359;SDS011;3720;48.274;7.796;2022-11-20T13:03:12;3.60;;;1.35;;
7359;SDS011;3720;48.274;7.796;2022-11-20T13:06:08;2.28;;;1.13;;
7359;SDS011;3720;48.274;7.796;2022-11-20T13:08:45;1.48;;;0.90;;
7359;SDS011;3720;48.274;7.796;2022-11-20T13:11:24;1.45;;;0.80;;
7359;SDS011;3720;48.274;7.796;2022-11-20T13:14:11;2.22;;;0.75;;
7359;SDS011;3720;48.274;7.796;2022-11-20T13:16:53;4.82;;;0.82;;
7359;SDS011;3720;48.274;7.796;2022-11-20T13:19:29;2.55;;;0.90;;
7359;SDS011;3720;48.274;7.796;2022-11-20T13:22:01;2.42;;;0.90;;
7359;SDS011;3720;48.274;7.796;2022-11-20T13:24:33;1.60;;;0.80;;
7359;SDS011;3720;48.274;7.796;2022-11-20T13:27:17;1.83;;;0.80;;
7359;SDS011;3720;48.274;7.796;2022-11-20T13:29:59;2.83;;;0.93;;
7359;SDS011;3720;48.274;7.796;2022-11-20T13:32:34;2.22;;;0.70;;
7359;SDS011;3720;48.274;7.796;2022-11-20T13:35:08;1.48;;;0.70;;
7359;SDS011;3720;48.274;7.796;2022-11-20T13:37:40;3.28;;;0.75;;
7359;SDS011;3720;48.274;7.796;2022-11-20T13:40:13;0.85;;;0.63;;
7359;SDS011;3720;48.274;7.796;2022-11-20T13:43:00;2.08;;;0.68;;
7359;SDS011;3720;48.274;7.796;2022-11-20T13:45:38;1.92;;;0.85;;
7359;SDS011;3720;48.274;7.796;2022-11-20T13:48:25;1.33;;;0.70;;
7359;SDS011;3720;48.274;7.796;2022-11-20T13:51:04;1.20;;;0.70;;
7359;SDS011;3720;48.274;7.796;2022-11-20T13:53:48;3.00;;;0.80;;
7359;SDS011;3720;48.274;7.796;2022-11-20T13:56:35;2.47;;;0.90;;
7359;SDS011;3720;48.274;7.796;2022-11-20T13:59:19;3.10;;;0.90;;
7359;SDS011;3720;48.274;7.796;2022-11-20T14:02:03;3.42;;;0.98;;
7359;SDS011;3720;48.274;7.796;2022-11-20T14:04:45;4.13;;;0.90;;
7359;SDS011;3720;48.274;7.796;2022-11-20T14:07:19;1.67;;;0.90;;
7359;SDS011;3720;48.274;7.796;2022-11-20T14:09:55;1.10;;;0.70;;
7359;SDS011;3720;48.274;7.796;2022-11-20T14:12:28;3.38;;;1.00;;
7359;SDS011;3720;48.274;7.796;2022-11-20T14:15:02;1.88;;;1.13;;
7359;SDS011;3720;48.274;7.796;2022-11-20T14:17:34;1.83;;;0.98;;
7359;SDS011;3720;48.274;7.796;2022-11-20T14:20:13;3.85;;;1.20;;
7359;SDS011;3720;48.274;7.796;2022-11-20T14:22:49;1.77;;;1.00;;
7359;SDS011;3720;48.274;7.796;2022-11-20T14:25:21;2.70;;;1.23;;
7359;SDS011;3720;48.274;7.796;2022-11-20T14:27:57;3.05;;;1.30;;
7359;SDS011;3720;48.274;7.796;2022-11-20T14:30:36;3.42;;;1.70;;
7359;SDS011;3720;48.274;7.796;2022-11-20T14:33:13;3.60;;;1.98;;
7359;SDS011;3720;48.274;7.796;2022-11-20T14:35:48;4.05;;;1.70;;
7359;SDS011;3720;48.274;7.796;2022-11-20T14:38:23;3.50;;;1.60;;
7359;SDS011;3720;48.274;7.796;2022-11-20T14:41:05;5.50;;;1.73;;
7359;SDS011;3720;48.274;7.796;2022-11-20T14:43:38;4.38;;;1.63;;
7359;SDS011;3720;48.274;7.796;2022-11-20T14:46:10;5.95;;;1.83;;
7359;SDS011;3720;48.274;7.796;2022-11-20T14:48:44;3.72;;;1.65;;
7359;SDS011;3720;48.274;7.796;2022-11-20T14:51:29;2.10;;;1.42;;
7359;SDS011;3720;48.274;7.796;2022-11-20T14:54:09;4.68;;;1.52;;
7359;SDS011;3720;48.274;7.796;2022-11-20T14:56:42;3.75;;;1.60;;
7359;SDS011;3720;48.274;7.796;2022-11-20T14:59:24;2.50;;;1.30;;
7359;SDS011;3720;48.274;7.796;2022-11-20T15:01:57;4.20;;;1.50;;
7359;SDS011;3720;48.274;7.796;2022-11-20T15:04:31;2.85;;;1.30;;
7359;SDS011;3720;48.274;7.796;2022-11-20T15:07:04;4.40;;;1.45;;
7359;SDS011;3720;48.274;7.796;2022-11-20T15:09:36;4.22;;;1.45;;
7359;SDS011;3720;48.274;7.796;2022-11-20T15:12:15;4.05;;;1.90;;
7359;SDS011;3720;48.274;7.796;2022-11-20T15:14:49;5.05;;;1.42;;
7359;SDS011;3720;48.274;7.796;2022-11-20T15:17:21;3.63;;;1.42;;
7359;SDS011;3720;48.274;7.796;2022-11-20T15:19:53;3.70;;;1.45;;
7359;SDS011;3720;48.274;7.796;2022-11-20T15:22:27;3.33;;;1.40;;
7359;SDS011;3720;48.274;7.796;2022-11-20T15:24:59;3.67;;;1.40;;
7359;SDS011;3720;48.274;7.796;2022-11-20T15:27:31;3.33;;;1.48;;
7359;SDS011;3720;48.274;7.796;2022-11-20T15:30:05;2.97;;;1.48;;
7359;SDS011;3720;48.274;7.796;2022-11-20T15:32:44;5.65;;;1.45;;
7359;SDS011;3720;48.274;7.796;2022-11-20T15:35:17;5.72;;;1.55;;
7359;SDS011;3720;48.274;7.796;2022-11-20T15:37:50;3.72;;;1.38;;
7359;SDS011;3720;48.274;7.796;2022-11-20T15:40:22;3.75;;;1.40;;
7359;SDS011;3720;48.274;7.796;2022-11-20T15:42:53;3.88;;;1.55;;
7359;SDS011;3720;48.274;7.796;2022-11-20T15:45:37;3.97;;;1.50;;
7359;SDS011;3720;48.274;7.796;2022-11-20T15:48:12;3.00;;;1.80;;
7359;SDS011;3720;48.274;7.796;2022-11-20T15:50:50;4.07;;;1.48;;
7359;SDS011;3720;48.274;7.796;2022-11-20T15:53:27;3.03;;;1.50;;
7359;SDS011;3720;48.274;7.796;2022-11-20T15:56:00;3.17;;;1.60;;
7359;SDS011;3720;48.274;7.796;2022-11-20T15:58:32;4.75;;;1.63;;
7359;SDS011;3720;48.274;7.796;2022-11-20T16:01:03;3.92;;;1.77;;
7359;SDS011;3720;48.274;7.796;2022-11-20T16:03:35;3.88;;;1.75;;
7359;SDS011;3720;48.274;7.796;2022-11-20T16:06:07;3.47;;;1.90;;
7359;SDS011;3720;48.274;7.796;2022-11-20T16:08:41;4.97;;;1.95;;
7359;SDS011;3720;48.274;7.796;2022-11-20T16:11:13;5.03;;;2.33;;